Time;durP1;ratioP1;P1;durP2;ratioP2;P2;SDS_P1;SDS_P2;PMS_P1;PMS_P2;Temp;Humidity;BMP_temperature;BMP_pressure;BME280_temperature;BME280_humidity;BME280_pressure;Samples;Min_cycle;Max_cycle;Signal;HPM_P1;HPM_P2
2022/03/05 00:00:15;;;;;;;11.68;6.95;;;10.10;94.70;;;;;;4969289;28;20038;-59
2022/03/05 00:02:42;;;;;;;12.40;7.57;;;10.10;94.60;;;;;;4967883;28;20506;-60
2022/03/05 00:05:10;;;;;;;14.23;7.72;;;10.00;94.30;;;;;;4972035;28;20408;-60
2022/03/05 00:07:38;;;;;;;14.77;9.35;;;10.00;94.40;;;;;;4956304;28;20100;-62
2022/03/05 00:10:06;;;;;;;19.58;10.13;;;10.00;94.50;;;;;;4972576;28;20049;-59
2022/03/05 00:12:33;;;;;;;20.00;10.32;;;10.00;94.70;;;;;;4971727;28;20042;-59
2022/03/05 00:15:01;;;;;;;18.45;12.20;;;10.00;94.70;;;;;;4972434;28;20526;-60
2022/03/05 00:17:29;;;;;;;13.95;9.20;;;10.10;94.90;;;;;;4963432;28;20050;-61
2022/03/05 00:19:57;;;;;;;13.48;9.02;;;10.10;94.90;;;;;;4971629;28;20049;-59
2022/03/05 00:22:26;;;;;;;10.35;5.50;;;10.10;94.90;;;;;;4958712;28;20440;-60
2022/03/05 00:24:54;;;;;;;10.52;6.65;;;10.10;95.10;;;;;;4985473;28;20038;-60
2022/03/05 00:27:22;;;;;;;8.40;6.60;;;10.00;95.40;;;;;;4955878;28;20046;-60
2022/03/05 00:29:50;;;;;;;8.50;5.78;;;10.00;95.30;;;;;;4973640;28;20070;-62
2022/03/05 00:32:18;;;;;;;12.20;5.95;;;10.00;95.40;;;;;;4970080;28;20035;-59
2022/03/05 00:34:45;;;;;;;11.25;5.88;;;10.00;95.50;;;;;;4971482;28;20133;-60
2022/03/05 00:37:13;;;;;;;9.82;6.10;;;9.90;95.60;;;;;;4971678;28;20126;-60
2022/03/05 00:39:41;;;;;;;10.77;6.40;;;9.90;95.80;;;;;;4971800;28;20045;-59
2022/03/05 00:42:09;;;;;;;11.98;7.00;;;10.00;95.90;;;;;;4972284;28;20070;-61
2022/03/05 00:44:37;;;;;;;10.48;5.70;;;10.00;96.10;;;;;;4973200;28;20406;-61
2022/03/05 00:47:05;;;;;;;14.98;7.50;;;10.00;96.10;;;;;;4972052;28;20053;-60
2022/03/05 00:49:34;;;;;;;13.50;6.68;;;10.10;96.10;;;;;;4971325;28;20122;-60
2022/03/05 00:52:03;;;;;;;10.82;5.35;;;10.00;96.30;;;;;;4971509;28;20557;-60
2022/03/05 00:54:31;;;;;;;6.50;4.20;;;10.00;96.50;;;;;;4968582;28;20035;-60
2022/03/05 00:56:59;;;;;;;8.13;4.70;;;10.00;96.70;;;;;;4965459;28;20043;-60
2022/03/05 00:59:26;;;;;;;9.52;4.80;;;10.00;96.80;;;;;;4964132;28;20047;-60
2022/03/05 01:01:54;;;;;;;11.85;6.97;;;10.00;96.80;;;;;;4971813;28;20046;-59
2022/03/05 01:04:22;;;;;;;14.95;8.63;;;10.10;96.90;;;;;;4942261;28;20505;-59
2022/03/05 01:06:50;;;;;;;12.85;8.45;;;10.10;96.80;;;;;;4975389;28;20046;-60
2022/03/05 01:09:17;;;;;;;15.05;9.50;;;10.10;96.70;;;;;;4976136;28;20501;-60
2022/03/05 01:11:45;;;;;;;12.07;7.95;;;10.10;96.70;;;;;;4976856;28;20042;-60
2022/03/05 01:14:12;;;;;;;10.30;6.60;;;10.10;96.70;;;;;;4975856;28;20051;-59
2022/03/05 01:16:40;;;;;;;11.00;5.50;;;10.10;96.70;;;;;;4971449;28;20035;-59
2022/03/05 01:19:07;;;;;;;8.07;4.75;;;10.10;96.60;;;;;;4973227;28;20082;-60
2022/03/05 01:21:36;;;;;;;9.70;6.13;;;10.10;96.50;;;;;;4975289;28;20058;-60
2022/03/05 01:24:04;;;;;;;7.38;5.10;;;10.00;96.50;;;;;;4973344;28;20070;-59
2022/03/05 01:26:31;;;;;;;8.32;5.50;;;10.00;96.60;;;;;;4966596;28;20122;-60
2022/03/05 01:29:01;;;;;;;7.95;4.45;;;10.00;96.90;;;;;;4973422;28;20047;-60
2022/03/05 01:31:29;;;;;;;7.95;4.70;;;10.00;97.00;;;;;;4975235;28;20039;-60
2022/03/05 01:33:59;;;;;;;4.75;3.28;;;10.00;97.10;;;;;;4975068;28;20057;-60
2022/03/05 01:36:26;;;;;;;7.28;4.32;;;10.00;97.00;;;;;;4974837;28;20516;-60
2022/03/05 01:38:54;;;;;;;5.80;4.28;;;10.10;97.10;;;;;;4975562;28;20043;-60
2022/03/05 01:41:22;;;;;;;6.65;4.40;;;10.10;97.10;;;;;;4967641;28;20039;-60
2022/03/05 01:43:51;;;;;;;8.40;5.38;;;10.10;97.20;;;;;;4960901;28;20051;-60
2022/03/05 01:46:34;;;;;;;6.38;4.80;;;10.10;97.30;;;;;;4969237;28;20046;-59
2022/03/05 01:49:04;;;;;;;7.78;5.57;;;10.10;97.40;;;;;;4966036;28;20044;-60
2022/03/05 01:51:32;;;;;;;9.02;5.95;;;10.10;97.40;;;;;;4968732;28;20099;-60
2022/03/05 01:54:00;;;;;;;10.40;5.93;;;10.00;97.50;;;;;;4967329;28;20070;-62
2022/03/05 01:56:29;;;;;;;9.13;4.90;;;10.10;97.60;;;;;;4964728;28;20038;-60
2022/03/05 01:58:58;;;;;;;7.43;5.13;;;10.10;97.70;;;;;;4958606;28;20138;-60
2022/03/05 02:01:28;;;;;;;7.60;4.35;;;10.10;97.60;;;;;;4972526;28;20129;-61
2022/03/05 02:03:56;;;;;;;7.75;4.80;;;10.10;97.50;;;;;;4971527;28;20066;-60
2022/03/05 02:06:24;;;;;;;6.90;3.92;;;10.20;97.40;;;;;;4975358;28;20066;-60
2022/03/05 02:08:54;;;;;;;5.18;3.30;;;10.20;97.30;;;;;;4971036;28;20063;-61
2022/03/05 02:11:23;;;;;;;5.95;3.90;;;10.10;97.10;;;;;;4972391;28;20051;-59
2022/03/05 02:13:51;;;;;;;8.63;4.43;;;10.10;97.10;;;;;;4964660;28;20396;-59
2022/03/05 02:16:19;;;;;;;7.13;3.92;;;10.00;97.10;;;;;;4975832;28;20517;-60
2022/03/05 02:18:48;;;;;;;6.18;4.53;;;10.00;97.20;;;;;;4976428;28;20097;-60
2022/03/05 02:21:16;;;;;;;8.73;4.65;;;9.90;97.30;;;;;;4970744;28;20549;-60
2022/03/05 02:23:44;;;;;;;5.93;4.10;;;9.90;97.30;;;;;;4968319;28;20043;-60
2022/03/05 02:26:12;;;;;;;7.03;4.78;;;9.90;97.20;;;;;;4968795;28;20393;-59
2022/03/05 02:28:39;;;;;;;9.15;4.25;;;9.80;97.00;;;;;;4955959;28;20055;-60
2022/03/05 02:31:07;;;;;;;7.85;4.78;;;9.80;97.20;;;;;;4955914;28;20126;-60
2022/03/05 02:33:35;;;;;;;7.03;5.47;;;9.80;97.30;;;;;;4955595;29;20047;-59
2022/03/05 02:36:03;;;;;;;6.95;4.80;;;9.80;97.20;;;;;;4939503;29;20054;-59
2022/03/05 02:38:31;;;;;;;11.32;5.05;;;9.80;97.30;;;;;;4957618;28;20047;-59
2022/03/05 02:40:59;;;;;;;7.45;4.90;;;9.80;97.20;;;;;;4957472;28;20070;-60
2022/03/05 02:43:27;;;;;;;9.20;5.45;;;9.80;97.30;;;;;;4954301;28;20146;-61
2022/03/05 02:45:55;;;;;;;6.53;4.22;;;9.80;97.30;;;;;;4954157;28;20047;-60
2022/03/05 02:48:23;;;;;;;7.70;5.28;;;9.80;97.20;;;;;;4955550;28;20055;-60
2022/03/05 02:50:50;;;;;;;9.45;4.75;;;9.80;97.10;;;;;;4971287;28;20500;-60
2022/03/05 02:53:18;;;;;;;7.82;4.45;;;9.80;97.10;;;;;;4955862;28;20066;-61
2022/03/05 02:55:46;;;;;;;5.88;4.03;;;9.80;97.20;;;;;;4955711;28;20069;-60
2022/03/05 02:58:14;;;;;;;5.22;4.22;;;9.70;97.20;;;;;;4956828;28;20086;-59
2022/03/05 03:00:42;;;;;;;5.65;3.70;;;9.70;97.30;;;;;;4955969;29;20043;-59
2022/03/05 03:03:10;;;;;;;7.55;3.83;;;9.70;97.30;;;;;;4955900;29;20401;-59
2022/03/05 03:05:38;;;;;;;6.90;4.15;;;9.70;97.20;;;;;;4957156;28;20380;-59
2022/03/05 03:08:08;;;;;;;8.90;4.22;;;9.70;97.20;;;;;;4957008;28;20035;-59
2022/03/05 03:10:36;;;;;;;7.45;4.28;;;9.60;97.40;;;;;;4955967;29;20083;-59
2022/03/05 03:13:03;;;;;;;6.07;3.88;;;9.60;97.50;;;;;;4956922;28;20051;-59
2022/03/05 03:15:31;;;;;;;8.20;4.25;;;9.60;97.50;;;;;;4955721;29;20090;-59
2022/03/05 03:17:58;;;;;;;8.80;5.80;;;9.60;97.50;;;;;;4955680;29;20079;-59
2022/03/05 03:20:27;;;;;;;5.63;4.25;;;9.50;97.70;;;;;;4956837;28;20043;-59
2022/03/05 03:22:55;;;;;;;7.53;4.35;;;9.50;97.90;;;;;;4956873;28;20422;-59
2022/03/05 03:25:23;;;;;;;7.95;4.45;;;9.40;98.00;;;;;;4955901;28;20122;-59
2022/03/05 03:27:52;;;;;;;3.70;2.75;;;9.50;98.20;;;;;;4956789;28;20047;-59
2022/03/05 03:30:20;;;;;;;6.15;3.30;;;9.50;98.20;;;;;;4956587;28;20146;-59
2022/03/05 03:32:51;;;;;;;7.07;3.83;;;9.60;98.20;;;;;;4956473;28;20047;-58
2022/03/05 03:35:18;;;;;;;7.72;4.30;;;9.60;98.10;;;;;;4956795;28;20149;-59
2022/03/05 03:37:46;;;;;;;5.65;3.25;;;9.60;98.10;;;;;;4956407;29;20075;-59
2022/03/05 03:40:16;;;;;;;6.07;2.50;;;9.60;98.10;;;;;;4955285;29;20079;-59
2022/03/05 03:42:45;;;;;;;6.45;3.13;;;9.60;98.20;;;;;;4956521;28;20047;-59
2022/03/05 03:45:14;;;;;;;5.63;2.95;;;9.60;98.20;;;;;;4956349;28;20482;-59
2022/03/05 03:47:45;;;;;;;5.85;4.43;;;9.60;98.30;;;;;;4971055;28;20059;-59
2022/03/05 03:50:19;;;;;;;6.28;2.97;;;9.60;98.40;;;;;;4939313;29;20089;-59
2022/03/05 03:52:48;;;;;;;4.90;3.42;;;9.70;98.50;;;;;;4956209;28;20163;-59
2022/03/05 03:55:20;;;;;;;4.38;2.65;;;9.70;98.40;;;;;;4956224;28;20043;-59
2022/03/05 03:57:48;;;;;;;3.67;2.60;;;9.80;98.40;;;;;;4955049;28;20406;-59
2022/03/05 04:00:18;;;;;;;4.40;2.35;;;9.80;98.30;;;;;;4939249;29;20426;-59
2022/03/05 04:02:46;;;;;;;4.30;2.00;;;9.70;98.20;;;;;;4956055;28;20126;-60
2022/03/05 04:05:16;;;;;;;3.30;2.20;;;9.80;98.50;;;;;;4955129;28;20106;-59
2022/03/05 04:10:29;;;;;;;4.30;2.35;;;9.70;98.50;;;;;;4954926;29;20047;-60
2022/03/05 04:12:57;;;;;;;4.90;3.05;;;9.70;98.60;;;;;;4956150;28;20131;-60
2022/03/05 04:15:24;;;;;;;3.58;2.50;;;9.70;98.50;;;;;;4954506;29;20047;-60
2022/03/05 04:17:52;;;;;;;4.55;2.28;;;9.80;98.60;;;;;;4923633;29;20114;-59
2022/03/05 04:20:20;;;;;;;2.40;1.77;;;9.80;98.60;;;;;;4955977;28;20063;-59
2022/03/05 04:22:47;;;;;;;2.95;1.90;;;9.70;98.70;;;;;;4938692;29;20517;-59
2022/03/05 04:25:15;;;;;;;4.63;2.25;;;9.80;98.70;;;;;;4955637;28;20036;-59
2022/03/05 04:27:42;;;;;;;2.90;1.73;;;9.80;98.60;;;;;;4954500;29;20047;-59
2022/03/05 04:30:10;;;;;;;3.60;2.10;;;9.80;98.50;;;;;;4955564;28;20134;-60
2022/03/05 04:32:38;;;;;;;4.53;2.63;;;9.90;98.50;;;;;;4954424;29;20043;-59
2022/03/05 04:35:06;;;;;;;4.72;2.70;;;9.90;98.50;;;;;;4954618;29;20051;-59
2022/03/05 04:37:34;;;;;;;4.20;2.70;;;9.90;98.50;;;;;;4955595;28;20043;-59
2022/03/05 04:40:03;;;;;;;6.18;2.47;;;9.90;98.40;;;;;;4938778;29;20066;-59
2022/03/05 04:42:31;;;;;;;3.53;2.63;;;9.90;98.30;;;;;;4938942;29;20062;-59
2022/03/05 04:44:59;;;;;;;14.70;8.60;;;9.90;98.30;;;;;;4955395;28;20110;-59
2022/03/05 04:47:26;;;;;;;6.32;3.45;;;9.90;98.30;;;;;;4955347;28;20068;-59
2022/03/05 04:49:54;;;;;;;3.70;2.50;;;9.60;98.40;;;;;;4954598;28;20055;-59
2022/03/05 04:52:21;;;;;;;6.78;3.30;;;9.50;98.60;;;;;;4954523;29;20126;-59
2022/03/05 04:54:49;;;;;;;6.43;3.30;;;9.40;99.00;;;;;;4955417;28;20039;-59
2022/03/05 04:57:16;;;;;;;3.65;2.58;;;9.30;99.10;;;;;;4955518;28;20502;-59
2022/03/05 04:59:44;;;;;;;5.13;2.72;;;9.30;99.30;;;;;;4954156;29;20043;-59
2022/03/05 05:02:12;;;;;;;4.05;2.47;;;9.30;99.30;;;;;;4938766;29;20052;-59
2022/03/05 05:04:39;;;;;;;4.75;3.08;;;9.20;99.60;;;;;;4955284;28;20063;-59
2022/03/05 05:07:07;;;;;;;4.90;3.30;;;9.20;99.50;;;;;;4938329;29;20069;-59
2022/03/05 05:09:34;;;;;;;6.60;3.90;;;9.20;99.60;;;;;;4955276;28;20048;-59
2022/03/05 05:12:02;;;;;;;6.25;4.05;;;9.20;99.70;;;;;;4954024;29;20123;-59
2022/03/05 05:14:30;;;;;;;4.90;3.25;;;9.20;99.60;;;;;;4955408;28;20451;-59
2022/03/05 05:16:57;;;;;;;8.43;4.00;;;9.20;99.70;;;;;;4954126;29;20138;-59
2022/03/05 05:19:25;;;;;;;5.95;4.03;;;9.20;99.60;;;;;;4955277;28;20430;-59
2022/03/05 05:21:57;;;;;;;4.43;2.58;;;9.20;99.80;;;;;;4955009;28;20410;-59
2022/03/05 05:24:26;;;;;;;5.30;3.50;;;9.20;99.90;;;;;;4938281;29;20043;-59
2022/03/05 05:26:54;;;;;;;8.00;4.75;;;9.30;99.90;;;;;;4938231;29;20069;-59
2022/03/05 05:29:23;;;;;;;6.20;2.97;;;9.20;99.90;;;;;;4955300;28;20066;-59
2022/03/05 05:32:10;;;;;;;12.13;3.42;;;9.30;99.90;;;;;;4955346;28;20048;-59
2022/03/05 05:34:39;;;;;;;3.45;2.63;;;9.30;99.90;;;;;;4953871;29;20070;-58
2022/03/05 05:37:12;;;;;;;5.25;2.33;;;9.30;99.90;;;;;;4955016;28;20075;-59
2022/03/05 05:39:41;;;;;;;4.28;2.67;;;9.40;99.80;;;;;;4954918;28;20051;-59
2022/03/05 05:42:08;;;;;;;3.38;2.40;;;9.30;99.90;;;;;;4955024;28;20043;-59
2022/03/05 05:44:36;;;;;;;4.90;2.75;;;9.40;99.90;;;;;;4953851;29;20043;-59
2022/03/05 05:47:04;;;;;;;5.65;3.47;;;9.40;99.90;;;;;;4953732;29;20109;-59
2022/03/05 05:49:32;;;;;;;4.28;3.05;;;9.40;99.90;;;;;;4955488;28;20047;-59
2022/03/05 05:52:01;;;;;;;5.03;3.63;;;9.40;99.90;;;;;;4958350;28;20045;-59
2022/03/05 05:54:28;;;;;;;6.82;4.22;;;9.50;99.90;;;;;;4957372;29;20039;-59
2022/03/05 05:56:56;;;;;;;3.50;2.72;;;9.40;99.90;;;;;;4958495;28;20043;-59
2022/03/05 05:59:23;;;;;;;4.10;2.85;;;9.40;99.90;;;;;;4957183;29;20375;-60
2022/03/05 06:01:51;;;;;;;6.03;4.10;;;9.30;99.90;;;;;;4941437;29;20454;-59
2022/03/05 06:04:19;;;;;;;7.38;4.10;;;9.30;99.90;;;;;;4957131;28;20107;-60
2022/03/05 06:06:46;;;;;;;6.82;3.58;;;9.30;99.90;;;;;;4958115;28;20059;-60
2022/03/05 06:09:14;;;;;;;4.68;3.25;;;9.30;99.90;;;;;;4958128;28;20043;-59
2022/03/05 06:11:41;;;;;;;4.45;2.70;;;9.30;99.90;;;;;;4958181;28;20094;-60
2022/03/05 06:14:10;;;;;;;5.30;2.35;;;9.40;99.90;;;;;;4973214;28;20059;-59
2022/03/05 06:16:38;;;;;;;4.63;2.38;;;9.40;99.90;;;;;;4958024;28;20039;-60
2022/03/05 06:19:08;;;;;;;3.58;2.53;;;9.40;99.90;;;;;;4940994;29;20043;-60
2022/03/05 06:21:36;;;;;;;5.60;2.85;;;9.50;99.90;;;;;;4956622;29;20082;-59
2022/03/05 06:24:03;;;;;;;6.13;3.15;;;9.40;99.90;;;;;;4940854;29;20046;-59
2022/03/05 06:26:31;;;;;;;7.47;3.42;;;9.40;99.90;;;;;;4957890;28;20063;-59
2022/03/05 06:28:59;;;;;;;6.47;3.72;;;9.40;99.90;;;;;;4958130;28;20044;-60
2022/03/05 06:31:27;;;;;;;7.60;4.20;;;9.40;99.90;;;;;;4957631;29;20098;-59
2022/03/05 06:33:54;;;;;;;9.18;5.68;;;9.40;99.90;;;;;;4957662;28;20051;-60
2022/03/05 06:36:22;;;;;;;11.02;5.97;;;9.40;99.90;;;;;;4956494;29;20070;-60
2022/03/05 06:38:51;;;;;;;7.07;5.10;;;9.40;99.90;;;;;;4957660;28;20498;-60
2022/03/05 06:41:19;;;;;;;7.40;4.72;;;9.40;99.90;;;;;;4957643;28;20052;-60
2022/03/05 06:43:46;;;;;;;7.38;3.67;;;9.40;99.90;;;;;;4957422;28;20521;-60
2022/03/05 06:46:14;;;;;;;7.28;3.90;;;9.50;99.90;;;;;;4957360;28;20044;-60
2022/03/05 06:48:42;;;;;;;5.38;3.75;;;9.60;99.90;;;;;;4957635;28;20062;-60
2022/03/05 06:51:09;;;;;;;7.28;3.58;;;9.60;99.90;;;;;;4962238;28;20038;-60
2022/03/05 06:53:37;;;;;;;6.85;3.30;;;9.70;99.90;;;;;;4974171;28;20086;-62
2022/03/05 06:56:04;;;;;;;5.93;3.67;;;9.70;99.90;;;;;;4975526;28;20065;-60
2022/03/05 06:58:32;;;;;;;5.43;3.30;;;9.70;99.90;;;;;;4973574;28;20504;-60
2022/03/05 07:01:00;;;;;;;4.28;2.35;;;9.80;99.90;;;;;;4972961;28;20101;-60
2022/03/05 07:03:27;;;;;;;5.13;3.05;;;9.80;99.90;;;;;;4973776;28;20042;-61
2022/03/05 07:05:55;;;;;;;5.63;3.83;;;9.80;99.90;;;;;;4973494;28;20039;-60
2022/03/05 07:08:22;;;;;;;6.55;2.55;;;9.80;99.90;;;;;;4974176;28;20042;-61
2022/03/05 07:10:50;;;;;;;4.72;2.38;;;9.80;99.90;;;;;;4973652;28;20235;-60
2022/03/05 07:13:18;;;;;;;4.05;2.70;;;9.80;99.90;;;;;;4970106;28;20043;-60
2022/03/05 07:15:45;;;;;;;3.78;2.95;;;9.80;99.90;;;;;;4969601;28;20039;-59
2022/03/05 07:18:13;;;;;;;4.05;3.15;;;9.80;99.90;;;;;;4972907;28;20482;-60
2022/03/05 07:20:41;;;;;;;4.20;2.40;;;9.90;99.90;;;;;;4972089;28;20074;-59
2022/03/05 07:23:09;;;;;;;3.28;1.77;;;9.90;99.90;;;;;;4973335;28;20054;-59
2022/03/05 07:25:39;;;;;;;3.83;3.13;;;9.90;99.90;;;;;;4975795;28;20494;-59
2022/03/05 07:28:08;;;;;;;8.40;3.08;;;9.90;99.90;;;;;;4974361;28;20061;-60
2022/03/05 07:30:39;;;;;;;6.38;3.10;;;9.90;99.90;;;;;;4974923;28;20127;-58
2022/03/05 07:33:09;;;;;;;6.13;3.20;;;9.90;99.90;;;;;;4975988;28;20129;-58
2022/03/05 07:35:37;;;;;;;6.78;3.15;;;9.90;99.90;;;;;;4975995;28;20557;-58
2022/03/05 07:38:04;;;;;;;5.38;2.97;;;9.90;99.90;;;;;;4975781;28;20485;-58
2022/03/05 07:40:32;;;;;;;5.70;2.53;;;9.90;99.90;;;;;;4974629;28;20043;-58
2022/03/05 07:43:00;;;;;;;8.10;4.43;;;10.00;99.90;;;;;;4975659;28;20039;-59
2022/03/05 07:45:27;;;;;;;7.35;4.15;;;10.00;99.90;;;;;;4942899;28;20062;-58
2022/03/05 07:47:55;;;;;;;7.82;4.03;;;10.00;99.90;;;;;;4974218;28;20066;-58
2022/03/05 07:50:23;;;;;;;7.93;5.30;;;10.00;99.90;;;;;;4974331;28;20429;-58
2022/03/05 07:52:50;;;;;;;13.00;6.55;;;10.00;99.90;;;;;;4974276;28;20046;-59
2022/03/05 07:55:19;;;;;;;11.45;4.40;;;10.00;99.90;;;;;;4975526;28;20043;-58
2022/03/05 07:57:47;;;;;;;6.25;4.00;;;10.00;99.90;;;;;;4975396;28;20060;-58
2022/03/05 08:00:15;;;;;;;6.72;3.78;;;10.00;99.90;;;;;;4975365;28;20557;-58
2022/03/05 08:02:47;;;;;;;12.07;7.35;;;10.00;99.90;;;;;;4975542;28;20517;-58
2022/03/05 08:05:14;;;;;;;12.30;5.25;;;10.00;99.90;;;;;;4975399;28;20478;-58
2022/03/05 08:07:42;;;;;;;8.65;6.00;;;9.90;99.90;;;;;;4974059;28;20094;-58
2022/03/05 08:10:10;;;;;;;9.65;6.00;;;9.90;99.90;;;;;;4973881;28;20145;-58
2022/03/05 08:12:37;;;;;;;16.42;5.47;;;9.90;99.90;;;;;;4974818;28;20054;-58
2022/03/05 08:15:06;;;;;;;8.25;5.47;;;9.80;99.90;;;;;;4975264;28;20050;-58
2022/03/05 08:17:34;;;;;;;10.75;6.95;;;9.70;99.90;;;;;;4958217;28;20058;-59
2022/03/05 08:20:02;;;;;;;6.72;5.15;;;9.70;99.90;;;;;;4975313;28;20494;-59
2022/03/05 08:22:30;;;;;;;10.95;6.25;;;9.80;99.90;;;;;;4973795;28;20051;-59
2022/03/05 08:24:58;;;;;;;9.43;5.40;;;9.90;99.90;;;;;;4973821;28;20043;-60
2022/03/05 08:27:26;;;;;;;12.63;7.20;;;9.90;99.90;;;;;;4942034;28;20379;-60
2022/03/05 08:29:53;;;;;;;28.90;16.48;;;10.00;99.90;;;;;;4973805;28;20147;-60
2022/03/05 08:32:21;;;;;;;30.90;17.65;;;10.00;99.90;;;;;;4974883;28;20058;-59
2022/03/05 08:34:48;;;;;;;16.13;8.60;;;9.90;99.90;;;;;;4973856;28;20501;-60
2022/03/05 08:37:16;;;;;;;12.25;7.40;;;9.90;99.90;;;;;;4973888;28;20055;-60
2022/03/05 08:39:43;;;;;;;12.35;8.45;;;9.80;99.90;;;;;;4973577;28;20062;-60
2022/03/05 08:42:11;;;;;;;12.82;8.82;;;9.70;99.90;;;;;;4958174;28;20054;-60
2022/03/05 08:44:41;;;;;;;9.75;6.50;;;9.80;99.90;;;;;;4973735;28;20049;-60
2022/03/05 08:47:08;;;;;;;9.43;5.57;;;9.90;99.90;;;;;;4974607;28;20043;-60
2022/03/05 08:49:36;;;;;;;8.43;5.80;;;9.90;99.90;;;;;;4973660;28;20133;-60
2022/03/05 08:52:04;;;;;;;9.52;6.25;;;9.90;99.90;;;;;;4973659;28;20142;-60
2022/03/05 08:54:31;;;;;;;12.73;7.75;;;9.90;99.90;;;;;;4973925;28;20047;-60
2022/03/05 08:57:00;;;;;;;14.38;10.07;;;9.90;99.90;;;;;;4974798;28;20050;-59
2022/03/05 08:59:30;;;;;;;13.55;7.50;;;9.90;99.90;;;;;;4973409;28;20105;-60
2022/03/05 09:01:57;;;;;;;12.80;8.30;;;9.80;99.90;;;;;;4974756;28;20042;-60
2022/03/05 09:04:25;;;;;;;8.93;6.25;;;9.80;99.90;;;;;;4974640;28;20039;-60
2022/03/05 09:06:53;;;;;;;9.25;6.07;;;9.90;99.90;;;;;;4974506;28;20402;-60
2022/03/05 09:09:21;;;;;;;13.30;5.50;;;9.90;99.90;;;;;;4957567;28;20486;-60
2022/03/05 09:11:49;;;;;;;8.88;5.65;;;9.90;99.90;;;;;;4973493;28;20125;-60
2022/03/05 09:14:16;;;;;;;10.15;5.97;;;9.90;99.90;;;;;;4974568;28;20047;-60
2022/03/05 09:16:44;;;;;;;8.65;6.15;;;9.80;99.90;;;;;;4973411;28;20077;-60
2022/03/05 09:19:12;;;;;;;13.10;8.85;;;9.90;99.90;;;;;;4973323;28;20038;-60
2022/03/05 09:21:39;;;;;;;9.38;6.28;;;9.90;99.90;;;;;;4974502;28;20754;-59
2022/03/05 09:24:08;;;;;;;7.22;5.53;;;9.90;99.90;;;;;;4974470;28;20073;-59
2022/03/05 09:26:36;;;;;;;6.72;4.72;;;9.90;99.90;;;;;;4977134;28;20050;-60
2022/03/05 09:29:04;;;;;;;7.38;5.32;;;10.00;99.90;;;;;;4977280;28;20047;-60
2022/03/05 09:31:32;;;;;;;8.10;4.70;;;10.00;99.90;;;;;;4977020;28;20055;-60
2022/03/05 09:34:00;;;;;;;7.10;5.18;;;10.00;99.90;;;;;;4978057;28;20046;-60
2022/03/05 09:36:27;;;;;;;6.93;4.70;;;10.10;99.90;;;;;;4977180;28;20062;-60
2022/03/05 09:38:55;;;;;;;6.18;4.53;;;10.20;99.90;;;;;;4977910;28;20397;-60
2022/03/05 09:41:26;;;;;;;7.57;4.85;;;10.20;99.90;;;;;;4978038;28;20062;-60
2022/03/05 09:43:54;;;;;;;7.15;5.45;;;10.30;99.90;;;;;;4978133;28;20047;-59
2022/03/05 09:46:26;;;;;;;8.73;4.40;;;10.30;99.90;;;;;;4977836;28;20053;-59
2022/03/05 09:48:54;;;;;;;5.53;4.20;;;10.20;99.90;;;;;;4944755;28;20065;-59
2022/03/05 09:51:25;;;;;;;6.10;5.00;;;10.30;99.90;;;;;;4945355;28;20053;-59
2022/03/05 09:53:53;;;;;;;10.60;4.35;;;10.30;99.90;;;;;;4977769;28;20437;-59
2022/03/05 09:56:22;;;;;;;8.98;5.40;;;10.30;99.90;;;;;;4977742;28;20050;-60
2022/03/05 09:58:52;;;;;;;10.15;4.55;;;10.30;99.90;;;;;;4977754;28;20507;-60
2022/03/05 10:01:20;;;;;;;8.73;3.97;;;10.30;99.90;;;;;;4976394;28;20043;-60
2022/03/05 10:03:53;;;;;;;7.78;3.97;;;10.20;99.90;;;;;;4977717;28;20039;-59
2022/03/05 10:06:28;;;;;;;11.88;5.13;;;10.20;99.90;;;;;;4972417;28;20073;-60
2022/03/05 10:08:57;;;;;;;6.82;4.32;;;10.20;99.90;;;;;;4975602;28;20554;-62
2022/03/05 10:11:38;;;;;;;7.05;5.25;;;10.20;99.90;;;;;;4975052;28;20532;-59
2022/03/05 10:14:15;;;;;;;7.35;5.22;;;10.20;99.90;;;;;;4964411;28;20090;-59
2022/03/05 10:16:47;;;;;;;7.25;4.22;;;10.30;99.90;;;;;;4976065;28;20043;-59
2022/03/05 10:19:20;;;;;;;10.50;4.45;;;10.30;99.90;;;;;;4977137;28;20053;-59
2022/03/05 10:22:08;;;;;;;4.97;3.33;;;10.30;99.90;;;;;;4977159;28;20476;-59
2022/03/05 10:24:37;;;;;;;5.22;3.45;;;10.30;99.90;;;;;;4977128;28;20129;-59
2022/03/05 10:27:07;;;;;;;4.57;2.88;;;10.30;99.90;;;;;;4977160;28;20050;-59
2022/03/05 10:29:37;;;;;;;6.05;3.67;;;10.30;99.90;;;;;;4976172;28;20078;-59
2022/03/05 10:32:10;;;;;;;5.28;3.60;;;10.30;99.90;;;;;;4977172;28;20062;-59
2022/03/05 10:34:56;;;;;;;7.13;3.95;;;10.30;99.90;;;;;;4975684;28;20097;-59
2022/03/05 10:37:24;;;;;;;5.13;3.08;;;10.30;99.90;;;;;;4977194;28;20468;-60
2022/03/05 10:39:52;;;;;;;5.22;2.97;;;10.40;99.90;;;;;;4976978;28;20053;-59
2022/03/05 10:42:21;;;;;;;6.95;3.42;;;10.50;99.90;;;;;;4976786;28;20545;-59
2022/03/05 10:45:05;;;;;;;5.90;3.35;;;10.70;99.90;;;;;;4976859;28;20042;-59
2022/03/05 10:47:38;;;;;;;6.53;3.75;;;10.70;99.90;;;;;;4976367;28;20520;-59
2022/03/05 10:50:07;;;;;;;5.97;3.42;;;10.80;99.90;;;;;;4959889;28;20053;-59
2022/03/05 10:52:49;;;;;;;7.25;2.63;;;10.70;99.90;;;;;;4976481;28;20498;-59
2022/03/05 10:55:19;;;;;;;4.90;3.45;;;10.80;99.90;;;;;;4976409;28;20066;-59
2022/03/05 10:58:18;;;;;;;6.57;3.35;;;10.80;99.90;;;;;;4972294;28;20450;-60
2022/03/05 11:00:49;;;;;;;8.23;2.63;;;10.70;99.90;;;;;;4969736;28;20043;-60
2022/03/05 11:03:17;;;;;;;8.65;3.65;;;10.80;99.90;;;;;;4974970;28;20043;-60
2022/03/05 11:05:46;;;;;;;8.80;3.83;;;10.70;99.90;;;;;;4973844;28;20051;-59
2022/03/05 11:08:17;;;;;;;6.50;2.60;;;10.70;99.90;;;;;;4974309;28;20405;-60
2022/03/05 11:10:48;;;;;;;10.23;4.05;;;10.70;99.90;;;;;;4973721;28;20051;-60
2022/03/05 11:13:16;;;;;;;6.03;3.45;;;10.80;99.90;;;;;;4974121;28;20137;-62
2022/03/05 11:15:45;;;;;;;4.57;2.97;;;10.90;99.90;;;;;;4970253;28;20055;-62
2022/03/05 11:18:13;;;;;;;7.50;3.22;;;10.90;99.90;;;;;;4974910;28;20038;-59
2022/03/05 11:20:45;;;;;;;3.97;2.80;;;11.00;99.90;;;;;;4973739;28;20053;-60
2022/03/05 11:23:13;;;;;;;9.57;3.72;;;11.10;99.90;;;;;;4951128;28;20469;-60
2022/03/05 11:25:42;;;;;;;5.82;3.25;;;11.40;99.90;;;;;;4973044;28;20043;-60
2022/03/05 11:28:19;;;;;;;5.18;3.15;;;11.40;99.90;;;;;;4974564;28;20073;-60
2022/03/05 11:30:46;;;;;;;5.95;3.42;;;11.40;99.90;;;;;;4958537;28;20051;-59
2022/03/05 11:33:43;;;;;;;9.25;3.45;;;11.40;99.90;;;;;;4975823;28;20051;-60
2022/03/05 11:36:32;;;;;;;8.32;3.72;;;11.40;99.90;;;;;;4974844;28;20059;-60
2022/03/05 11:39:13;;;;;;;2.97;2.25;;;11.50;99.90;;;;;;4974554;28;20097;-59
2022/03/05 11:42:09;;;;;;;3.50;2.33;;;11.50;99.90;;;;;;4974383;28;20046;-59
2022/03/05 11:44:36;;;;;;;6.85;2.90;;;11.50;99.90;;;;;;4973635;28;20375;-60
2022/03/05 11:47:19;;;;;;;4.00;2.25;;;11.50;99.90;;;;;;4974976;28;20513;-60
2022/03/05 11:49:59;;;;;;;5.18;1.92;;;11.50;99.90;;;;;;4974473;28;20034;-59
2022/03/05 11:52:39;;;;;;;5.75;2.55;;;11.40;99.90;;;;;;4974268;28;20043;-60
2022/03/05 11:55:19;;;;;;;4.85;3.28;;;11.50;99.90;;;;;;4974552;28;20055;-60
2022/03/05 11:57:53;;;;;;;9.88;3.60;;;11.80;99.90;;;;;;4974270;28;20055;-59
2022/03/05 12:00:32;;;;;;;7.25;4.30;;;11.90;99.90;;;;;;4974237;28;20035;-59
2022/03/05 12:03:01;;;;;;;9.05;4.47;;;12.10;99.90;;;;;;4975430;28;20043;-59
2022/03/05 12:05:38;;;;;;;11.38;3.65;;;12.10;99.90;;;;;;4974211;28;20548;-60
2022/03/05 12:08:08;;;;;;;7.95;5.15;;;12.00;99.90;;;;;;4973979;28;20074;-60
2022/03/05 12:10:39;;;;;;;6.03;4.20;;;12.20;99.90;;;;;;4975142;28;20201;-59
2022/03/05 12:13:09;;;;;;;4.80;2.97;;;12.30;99.90;;;;;;4975203;28;20053;-59
2022/03/05 12:15:44;;;;;;;6.97;3.50;;;12.30;99.90;;;;;;4974008;28;20050;-60
2022/03/05 12:18:15;;;;;;;7.07;3.92;;;12.20;99.90;;;;;;4974357;28;20054;-60
2022/03/05 12:20:46;;;;;;;6.00;3.42;;;12.10;99.90;;;;;;4975079;28;20097;-60
2022/03/05 12:23:19;;;;;;;7.65;3.42;;;12.10;99.90;;;;;;4975124;28;20090;-60
2022/03/05 12:25:52;;;;;;;5.85;3.20;;;12.10;99.90;;;;;;4974964;28;20500;-59
2022/03/05 12:28:23;;;;;;;5.07;3.25;;;12.10;99.90;;;;;;4975087;28;20434;-59
2022/03/05 12:30:58;;;;;;;5.43;3.92;;;12.10;99.90;;;;;;4974899;28;20050;-59
2022/03/05 12:33:26;;;;;;;7.28;3.95;;;12.00;99.90;;;;;;4973863;28;20043;-60
2022/03/05 12:35:55;;;;;;;7.97;4.72;;;12.10;99.90;;;;;;4941837;28;20047;-59
2022/03/05 12:38:23;;;;;;;5.25;3.78;;;12.10;99.90;;;;;;4973557;28;20051;-59
2022/03/05 12:40:50;;;;;;;5.80;3.72;;;12.10;99.90;;;;;;4973992;28;20064;-59
2022/03/05 12:43:18;;;;;;;6.65;4.07;;;12.10;99.90;;;;;;4973707;28;20047;-59
2022/03/05 12:45:48;;;;;;;8.95;5.05;;;12.10;99.90;;;;;;4973730;28;20070;-59
2022/03/05 12:48:18;;;;;;;5.40;3.15;;;12.10;99.90;;;;;;4973217;28;20054;-60
2022/03/05 12:50:51;;;;;;;4.93;3.10;;;12.10;99.90;;;;;;4957072;28;20383;-59
2022/03/05 12:53:25;;;;;;;6.57;3.30;;;12.10;99.90;;;;;;4957695;28;20394;-59
2022/03/05 12:55:56;;;;;;;7.20;4.40;;;12.20;99.90;;;;;;4974916;28;20087;-60
2022/03/05 12:58:32;;;;;;;7.88;5.68;;;12.30;99.90;;;;;;4974768;28;20445;-60
2022/03/05 13:01:05;;;;;;;8.65;4.50;;;12.40;99.90;;;;;;4977473;28;20043;-59
2022/03/05 13:03:35;;;;;;;10.77;5.53;;;12.40;99.90;;;;;;4977637;28;20105;-60